createdAt,value
2019-04-28T00:01:18.999Z,18.03
2019-04-28T00:03:51.467Z,17.37
2019-04-28T00:06:21.980Z,16.57
2019-04-28T00:08:52.612Z,18.83
2019-04-28T00:11:23.186Z,19.37
2019-04-28T00:13:53.945Z,18.93
2019-04-28T00:16:24.831Z,19.53
2019-04-28T00:18:55.616Z,19.20
2019-04-28T00:21:41.508Z,18.77
2019-04-28T00:24:31.288Z,18.40
2019-04-28T00:27:04.502Z,18.87
2019-04-28T00:29:40.472Z,18.77
2019-04-28T00:32:07.667Z,17.37
2019-04-28T00:34:38.402Z,19.80
2019-04-28T00:37:15.904Z,18.33
2019-04-28T00:39:46.457Z,19.27
2019-04-28T00:42:17.065Z,18.27
2019-04-28T00:44:47.708Z,18.73
2019-04-28T00:47:18.159Z,20.63
2019-04-28T00:49:48.750Z,19.40
2019-04-28T00:52:21.996Z,19.87
2019-04-28T00:54:52.889Z,18.47
2019-04-28T00:57:23.617Z,18.27
2019-04-28T00:59:58.534Z,18.90
2019-04-28T01:02:34.198Z,18.33
2019-04-28T01:05:06.352Z,17.80
2019-04-28T01:07:36.950Z,17.53
2019-04-28T01:10:08.230Z,18.30
2019-04-28T01:12:40.586Z,18.47
2019-04-28T01:15:20.215Z,18.10
2019-04-28T01:18:10.490Z,17.60
2019-04-28T01:20:41.099Z,16.77
2019-04-28T01:23:11.790Z,15.43
2019-04-28T01:25:42.337Z,16.57
2019-04-28T01:28:12.849Z,16.33
2019-04-28T01:30:54.629Z,15.13
2019-04-28T01:33:40.656Z,15.97
2019-04-28T01:36:11.501Z,16.07
2019-04-28T01:38:42.081Z,16.37
2019-04-28T01:41:12.661Z,12.67
2019-04-28T01:43:43.336Z,15.33
2019-04-28T01:46:13.781Z,16.00
2019-04-28T01:48:44.307Z,14.87
2019-04-28T01:51:14.842Z,15.17
2019-04-28T01:53:45.479Z,14.67
2019-04-28T01:56:16.067Z,15.00
2019-04-28T01:58:46.695Z,14.50
2019-04-28T02:01:17.412Z,15.10
2019-04-28T02:03:48.008Z,15.50
2019-04-28T02:06:19.870Z,14.60
2019-04-28T02:08:51.306Z,14.97
2019-04-28T02:11:22.158Z,14.27
2019-04-28T02:13:52.712Z,13.80
2019-04-28T02:16:23.149Z,13.93
2019-04-28T02:18:53.710Z,14.87
2019-04-28T02:21:43.358Z,13.47
2019-04-28T02:24:32.929Z,13.00
2019-04-28T02:27:03.739Z,13.37
2019-04-28T02:29:34.378Z,12.03
2019-04-28T02:32:06.346Z,12.00
2019-04-28T02:34:40.700Z,9.63
2019-04-28T02:37:11.369Z,11.70
2019-04-28T02:39:43.022Z,10.63
2019-04-28T02:42:13.801Z,9.73
2019-04-28T02:44:44.340Z,9.87
2019-04-28T02:47:14.834Z,9.40
2019-04-28T02:50:04.422Z,9.47
2019-04-28T02:52:53.964Z,9.23
2019-04-28T02:55:24.508Z,9.30
2019-04-28T02:57:55.057Z,9.00
2019-04-28T03:00:25.594Z,8.87
2019-04-28T03:02:56.289Z,8.77
2019-04-28T03:05:26.955Z,8.03
2019-04-28T03:07:57.687Z,8.47
2019-04-28T03:10:30.736Z,8.40
2019-04-28T03:13:01.408Z,9.10
2019-04-28T03:15:32.130Z,8.83
2019-04-28T03:18:02.703Z,10.07
2019-04-28T03:20:34.067Z,9.83
2019-04-28T03:23:08.738Z,10.27
2019-04-28T03:25:55.965Z,10.57
2019-04-28T03:28:45.659Z,10.33
2019-04-28T03:32:00.945Z,10.13
2019-04-28T03:34:12.555Z,11.77
2019-04-28T03:36:41.000Z,10.93
2019-04-28T03:39:12.512Z,11.73
2019-04-28T03:41:43.009Z,12.23
2019-04-28T03:44:13.521Z,13.10
2019-04-28T03:46:51.143Z,12.80
2019-04-28T03:49:43.204Z,13.70
2019-04-28T03:52:12.792Z,12.57
2019-04-28T03:54:43.372Z,13.40
2019-04-28T03:57:13.790Z,13.17
2019-04-28T03:59:44.390Z,15.13
2019-04-28T04:02:15.371Z,14.10
2019-04-28T04:04:45.821Z,14.50
2019-04-28T04:07:16.388Z,14.63
2019-04-28T04:09:57.999Z,16.13
2019-04-28T04:12:43.079Z,15.77
2019-04-28T04:15:41.319Z,15.40
2019-04-28T04:18:17.885Z,16.03
2019-04-28T04:20:50.962Z,16.17
2019-04-28T04:23:32.745Z,16.70
2019-04-28T04:26:03.345Z,16.13
2019-04-28T04:28:33.832Z,16.10
2019-04-28T04:31:04.464Z,16.77
2019-04-28T04:33:35.130Z,14.10
2019-04-28T04:36:05.867Z,15.33
2019-04-28T04:38:40.042Z,14.10
2019-04-28T04:41:10.939Z,16.17
2019-04-28T04:43:41.768Z,16.33
2019-04-28T04:46:21.991Z,17.03
2019-04-28T04:48:51.833Z,16.97
2019-04-28T04:51:22.859Z,16.27
2019-04-28T04:53:53.371Z,15.03
2019-04-28T04:56:24.039Z,16.03
2019-04-28T04:58:54.550Z,16.23
2019-04-28T05:01:44.229Z,16.23
2019-04-28T05:04:33.777Z,16.00
2019-04-28T05:07:04.367Z,16.67
2019-04-28T05:09:34.900Z,17.13
2019-04-28T05:12:05.468Z,16.60
2019-04-28T05:14:36.182Z,16.63
2019-04-28T05:17:06.757Z,16.33
2019-04-28T05:19:37.156Z,17.43
2019-04-28T05:22:10.178Z,17.30
2019-04-28T05:24:51.159Z,15.73
2019-04-28T05:27:25.371Z,16.60
2019-04-28T05:29:56.883Z,19.73
2019-04-28T05:32:39.066Z,17.80
2019-04-28T05:35:01.232Z,18.50
2019-04-28T05:37:31.709Z,17.13
2019-04-28T05:40:02.507Z,17.23
2019-04-28T05:42:33.112Z,16.23
2019-04-28T05:45:03.853Z,17.00
2019-04-28T05:47:34.369Z,14.37
2019-04-28T05:50:10.719Z,17.30
2019-04-28T05:53:00.645Z,14.67
2019-04-28T05:55:39.344Z,13.93
2019-04-28T05:58:31.904Z,14.43
2019-04-28T06:01:21.662Z,13.63
2019-04-28T06:03:52.084Z,13.27
2019-04-28T06:06:26.002Z,13.23
2019-04-28T06:09:03.914Z,13.83
2019-04-28T06:11:39.759Z,11.30
2019-04-28T06:14:11.732Z,11.33
2019-04-28T06:16:42.379Z,11.70
2019-04-28T06:19:12.939Z,12.40
2019-04-28T06:21:43.408Z,11.30
2019-04-28T06:24:13.882Z,10.67
2019-04-28T06:26:44.403Z,11.57
2019-04-28T06:29:15.017Z,10.90
2019-04-28T06:31:48.723Z,10.23
2019-04-28T06:34:19.492Z,9.93
2019-04-28T06:36:50.091Z,10.77
2019-04-28T06:39:20.641Z,11.60
2019-04-28T06:41:51.139Z,11.27
2019-04-28T06:44:21.718Z,9.63
2019-04-28T06:46:52.525Z,11.03
2019-04-28T06:49:23.162Z,11.10
2019-04-28T06:51:53.681Z,10.40
2019-04-28T06:54:24.281Z,10.60
2019-04-28T06:56:54.981Z,10.07
2019-04-28T06:59:25.397Z,8.47
2019-04-28T07:01:55.903Z,10.90
2019-04-28T07:04:26.467Z,10.03
2019-04-28T07:06:58.063Z,10.27
2019-04-28T07:09:28.732Z,9.27
2019-04-28T07:11:59.477Z,10.37
2019-04-28T07:14:30.043Z,10.03
2019-04-28T07:17:00.703Z,8.93
2019-04-28T07:19:33.478Z,9.50
2019-04-28T07:22:12.860Z,9.37
2019-04-28T07:24:44.933Z,9.23
2019-04-28T07:27:16.599Z,8.63
2019-04-28T07:29:47.200Z,9.43
2019-04-28T07:32:17.834Z,9.60
2019-04-28T07:34:48.409Z,10.40
2019-04-28T07:37:19.011Z,10.40
2019-04-28T07:39:49.522Z,10.57
2019-04-28T07:42:20.044Z,10.70
2019-04-28T07:44:50.732Z,11.43
2019-04-28T07:47:21.319Z,11.77
2019-04-28T07:49:52.037Z,11.43
2019-04-28T07:52:42.324Z,11.17
2019-04-28T07:55:14.142Z,9.87
2019-04-28T07:57:44.755Z,11.70
2019-04-28T08:00:19.363Z,11.53
2019-04-28T08:02:49.980Z,10.60
2019-04-28T08:05:20.556Z,10.03
2019-04-28T08:07:51.301Z,10.20
2019-04-28T08:10:21.849Z,12.37
2019-04-28T08:12:52.470Z,11.30
2019-04-28T08:15:23.289Z,11.13
2019-04-28T08:17:54.409Z,10.63
2019-04-28T08:20:25.090Z,8.50
2019-04-28T08:22:55.749Z,10.93
2019-04-28T08:25:26.257Z,10.93
2019-04-28T08:27:56.869Z,10.40
2019-04-28T08:30:27.475Z,10.83
2019-04-28T08:33:02.926Z,10.57
2019-04-28T08:35:34.930Z,8.77
2019-04-28T08:38:09.037Z,10.53
2019-04-28T08:40:39.522Z,10.70
2019-04-28T08:43:10.223Z,11.20
2019-04-28T08:45:40.930Z,10.00
2019-04-28T08:48:11.488Z,10.67
2019-04-28T08:50:42.308Z,11.23
2019-04-28T08:53:14.046Z,10.93
2019-04-28T08:55:44.832Z,10.33
2019-04-28T08:58:17.874Z,9.90
2019-04-28T09:00:48.524Z,10.30
2019-04-28T09:03:19.310Z,11.23
2019-04-28T09:05:49.891Z,9.87
2019-04-28T09:08:20.541Z,10.53
2019-04-28T09:10:51.331Z,9.50
2019-04-28T09:13:22.321Z,10.37
2019-04-28T09:15:52.976Z,9.83
2019-04-28T09:18:23.672Z,9.77
2019-04-28T09:20:54.373Z,10.03
2019-04-28T09:23:24.981Z,9.47
2019-04-28T09:25:55.741Z,10.53
2019-04-28T09:28:26.515Z,10.33
2019-04-28T09:30:57.353Z,9.63
2019-04-28T09:33:28.016Z,9.93
2019-04-28T09:35:58.670Z,9.43
2019-04-28T09:38:29.319Z,8.83
2019-04-28T09:41:00.201Z,8.30
2019-04-28T09:43:49.882Z,8.67
2019-04-28T09:46:24.061Z,8.63
2019-04-28T09:48:54.625Z,7.90
2019-04-28T09:51:44.408Z,8.23
2019-04-28T09:54:14.928Z,8.23
2019-04-28T09:56:55.996Z,9.00
2019-04-28T09:59:18.920Z,8.87
2019-04-28T10:01:49.555Z,8.80
2019-04-28T10:04:20.228Z,9.83
2019-04-28T10:06:50.903Z,12.10
2019-04-28T10:09:21.657Z,16.63
2019-04-28T10:11:52.604Z,9.63
2019-04-28T10:14:23.288Z,9.97
2019-04-28T10:16:53.972Z,9.60
2019-04-28T10:19:25.719Z,9.83
2019-04-28T10:21:56.437Z,9.70
2019-04-28T10:24:26.908Z,10.10
2019-04-28T10:26:57.557Z,9.70
2019-04-28T10:29:28.031Z,9.63
2019-04-28T10:31:58.705Z,9.00
2019-04-28T10:34:29.347Z,8.80
2019-04-28T10:37:00.030Z,9.80
2019-04-28T10:39:40.091Z,9.93
2019-04-28T10:42:10.896Z,57.37
2019-04-28T10:44:44.277Z,18.00
2019-04-28T10:47:15.387Z,10.43
2019-04-28T10:49:46.212Z,9.90
2019-04-28T10:52:17.043Z,10.27
2019-04-28T10:54:47.730Z,11.50
2019-04-28T10:57:18.521Z,11.37
2019-04-28T10:59:49.189Z,14.77
2019-04-28T11:02:21.823Z,11.07
2019-04-28T11:05:08.033Z,16.80
2019-04-28T11:07:30.744Z,18.20
2019-04-28T11:10:07.276Z,11.80
2019-04-28T11:12:38.129Z,13.40
2019-04-28T11:15:12.822Z,9.90
2019-04-28T11:17:43.400Z,9.30
2019-04-28T11:20:14.438Z,14.40
2019-04-28T11:22:45.182Z,7.47
2019-04-28T11:25:15.917Z,9.37
2019-04-28T11:27:46.565Z,9.40
2019-04-28T11:30:18.210Z,8.70
2019-04-28T11:33:04.593Z,8.10
2019-04-28T11:35:35.718Z,8.00
2019-04-28T11:38:06.466Z,7.50
2019-04-28T11:40:37.478Z,7.93
2019-04-28T11:43:08.510Z,8.70
2019-04-28T11:45:39.211Z,7.57
2019-04-28T11:48:10.020Z,7.13
2019-04-28T11:50:43.860Z,6.97
2019-04-28T11:53:14.944Z,7.00
2019-04-28T11:55:45.786Z,7.20
2019-04-28T11:58:16.627Z,7.20
2019-04-28T12:00:47.415Z,6.70
2019-04-28T12:03:18.216Z,7.13
2019-04-28T12:05:48.861Z,7.03
2019-04-28T12:08:19.679Z,18.10
2019-04-28T12:11:09.552Z,37.03
2019-04-28T12:13:54.547Z,9.77
2019-04-28T12:16:44.357Z,18.40
2019-04-28T12:19:20.368Z,17.33
2019-04-28T12:21:51.268Z,14.93
2019-04-28T12:24:21.943Z,7.37
2019-04-28T12:26:52.773Z,12.60
2019-04-28T12:29:23.484Z,7.07
2019-04-28T12:31:55.191Z,16.97
2019-04-28T12:34:26.118Z,20.00
2019-04-28T12:36:56.718Z,18.47
2019-04-28T12:39:27.705Z,15.57
2019-04-28T12:41:58.441Z,17.47
2019-04-28T12:44:29.142Z,8.03
2019-04-28T12:47:00.014Z,17.63
2019-04-28T12:49:36.091Z,21.03
2019-04-28T12:52:08.129Z,19.40
2019-04-28T12:54:40.340Z,11.63
2019-04-28T12:57:11.177Z,9.47
2019-04-28T12:59:47.906Z,20.70
2019-04-28T13:02:37.753Z,15.17
2019-04-28T13:05:12.607Z,17.23
2019-04-28T13:07:43.425Z,22.83
2019-04-28T13:10:14.387Z,14.53
2019-04-28T13:12:45.319Z,17.20
2019-04-28T13:15:16.239Z,18.50
2019-04-28T13:17:47.112Z,12.37
2019-04-28T13:20:18.803Z,26.97
2019-04-28T13:22:49.937Z,22.43
2019-04-28T13:25:20.723Z,23.07
2019-04-28T13:27:51.451Z,17.67
2019-04-28T13:30:22.437Z,21.50
2019-04-28T13:32:53.124Z,12.60
2019-04-28T13:35:24.028Z,11.00
2019-04-28T13:37:54.810Z,11.17
2019-04-28T13:40:29.370Z,14.73
2019-04-28T13:43:00.156Z,17.97
2019-04-28T13:45:30.994Z,15.67
2019-04-28T13:48:01.598Z,14.20
2019-04-28T13:50:35.742Z,15.23
2019-04-28T13:53:07.793Z,16.50
2019-04-28T13:55:57.574Z,19.53
2019-04-28T13:58:31.583Z,16.67
2019-04-28T14:01:21.577Z,16.97
2019-04-28T14:04:11.677Z,17.73
2019-04-28T14:06:46.427Z,16.83
2019-04-28T14:09:18.041Z,18.00
2019-04-28T14:11:48.679Z,15.20
2019-04-28T14:14:20.125Z,15.57
2019-04-28T14:16:51.225Z,18.40
2019-04-28T14:19:22.125Z,17.03
2019-04-28T14:21:52.949Z,9.57
2019-04-28T14:24:23.809Z,15.50
2019-04-28T14:26:54.617Z,16.63
2019-04-28T14:29:25.433Z,15.20
2019-04-28T14:31:56.781Z,12.77
2019-04-28T14:34:27.789Z,14.07
2019-04-28T14:36:58.932Z,14.17
2019-04-28T14:39:32.859Z,12.30
2019-04-28T14:42:03.671Z,14.23
2019-04-28T14:44:34.444Z,14.60
2019-04-28T14:47:05.211Z,14.23
2019-04-28T14:49:36.373Z,13.40
2019-04-28T14:52:07.331Z,13.33
2019-04-28T14:54:38.047Z,13.60
2019-04-28T14:57:08.663Z,14.40
2019-04-28T14:59:39.366Z,15.23
2019-04-28T15:02:29.102Z,14.80
2019-04-28T15:05:12.979Z,15.43
2019-04-28T15:08:02.676Z,16.00
2019-04-28T15:10:39.706Z,15.03
2019-04-28T15:13:10.793Z,13.00
2019-04-28T15:15:41.645Z,14.00
2019-04-28T15:18:14.391Z,13.23
2019-04-28T15:20:45.479Z,13.93
2019-04-28T15:23:16.263Z,12.43
2019-04-28T15:25:47.101Z,13.53
2019-04-28T15:28:18.090Z,13.87
2019-04-28T15:30:48.892Z,13.93
2019-04-28T15:33:22.528Z,12.20
2019-04-28T15:35:55.407Z,12.30
2019-04-28T15:38:27.984Z,12.57
2019-04-28T15:41:00.261Z,12.27
2019-04-28T15:43:34.358Z,12.50
2019-04-28T15:46:03.737Z,12.57
2019-04-28T15:48:35.528Z,13.57
2019-04-28T15:51:06.618Z,12.60
2019-04-28T15:53:38.522Z,14.23
2019-04-28T15:56:24.411Z,15.07
2019-04-28T15:58:56.831Z,13.33
2019-04-28T16:01:27.799Z,13.23
2019-04-28T16:03:58.566Z,12.77
2019-04-28T16:06:30.155Z,12.80
2019-04-28T16:09:01.233Z,13.70
2019-04-28T16:11:33.100Z,13.63
2019-04-28T16:14:04.650Z,13.07
2019-04-28T16:16:35.532Z,13.70
2019-04-28T16:19:06.804Z,12.30
2019-04-28T16:21:38.489Z,13.90
2019-04-28T16:24:09.458Z,13.27
2019-04-28T16:26:40.775Z,14.10
2019-04-28T16:29:11.705Z,13.63
2019-04-28T16:31:42.980Z,13.73
2019-04-28T16:34:13.719Z,13.23
2019-04-28T16:36:44.491Z,13.17
2019-04-28T16:39:15.190Z,14.17
2019-04-28T16:41:46.201Z,15.27
2019-04-28T16:44:17.389Z,14.93
2019-04-28T16:46:48.319Z,11.13
2019-04-28T16:49:19.127Z,14.17
2019-04-28T16:51:49.998Z,15.53
2019-04-28T16:54:21.767Z,15.90
2019-04-28T16:57:11.458Z,15.87
2019-04-28T16:59:52.504Z,16.27
2019-04-28T17:02:26.308Z,15.87
2019-04-28T17:04:57.942Z,16.17
2019-04-28T17:07:30.054Z,16.70
2019-04-28T17:10:00.755Z,16.67
2019-04-28T17:12:31.437Z,16.87
2019-04-28T17:15:03.448Z,18.67
2019-04-28T17:17:34.847Z,18.10
2019-04-28T17:20:07.410Z,18.97
2019-04-28T17:22:38.298Z,19.33
2019-04-28T17:25:09.142Z,18.57
2019-04-28T17:27:45.093Z,20.60
2019-04-28T17:30:16.755Z,18.97
2019-04-28T17:32:47.823Z,20.97
2019-04-28T17:35:18.989Z,20.30
2019-04-28T17:37:49.981Z,18.43
2019-04-28T17:40:22.141Z,20.87
2019-04-28T17:42:53.821Z,21.10
2019-04-28T17:45:29.465Z,20.10
2019-04-28T17:48:13.233Z,21.93
2019-04-28T17:50:45.846Z,22.57
2019-04-28T17:53:16.793Z,20.97
2019-04-28T17:55:48.806Z,20.33
2019-04-28T17:58:19.974Z,20.23
2019-04-28T18:01:10.944Z,21.23
2019-04-28T18:03:59.655Z,18.83
2019-04-28T18:06:31.157Z,19.40
2019-04-28T18:09:02.098Z,19.10
2019-04-28T18:11:34.535Z,21.23
2019-04-28T18:14:05.314Z,19.43
2019-04-28T18:16:56.942Z,18.70
2019-04-28T18:19:42.681Z,18.80
2019-04-28T18:22:14.937Z,19.13
2019-04-28T18:24:45.738Z,20.07
2019-04-28T18:27:16.575Z,20.97
2019-04-28T18:29:47.419Z,19.57
2019-04-28T18:32:33.856Z,19.10
2019-04-28T18:35:10.659Z,17.73
2019-04-28T18:38:02.286Z,19.17
2019-04-28T18:40:52.063Z,20.43
2019-04-28T18:43:42.451Z,19.30
2019-04-28T18:46:13.710Z,18.93
2019-04-28T18:48:44.707Z,21.60
2019-04-28T18:51:15.347Z,21.80
2019-04-28T18:53:47.267Z,22.13
2019-04-28T18:56:19.321Z,21.63
2019-04-28T18:58:50.142Z,25.23
2019-04-28T19:01:35.443Z,22.67
2019-04-28T19:04:07.230Z,21.63
2019-04-28T19:06:38.590Z,23.80
2019-04-28T19:09:24.358Z,24.63
2019-04-28T19:12:10.981Z,22.73
2019-04-28T19:14:49.633Z,24.87
2019-04-28T19:17:30.779Z,25.03
2019-04-28T19:20:01.563Z,25.80
2019-04-28T19:22:44.378Z,26.67
2019-04-28T19:25:16.488Z,25.10
2019-04-28T19:27:47.422Z,24.50
2019-04-28T19:30:21.118Z,27.27
2019-04-28T19:32:52.477Z,29.00
2019-04-28T19:35:28.095Z,24.57
2019-04-28T19:37:59.114Z,26.70
2019-04-28T19:40:31.893Z,25.37
2019-04-28T19:43:03.353Z,26.30
2019-04-28T19:45:37.542Z,28.20
2019-04-28T19:48:10.593Z,28.03
2019-04-28T19:50:41.389Z,28.33
2019-04-28T19:53:12.442Z,26.27
2019-04-28T19:55:48.927Z,27.80
2019-04-28T19:58:29.779Z,29.80
2019-04-28T20:01:06.325Z,28.97
2019-04-28T20:03:39.508Z,30.23
2019-04-28T20:06:10.466Z,29.27
2019-04-28T20:08:41.172Z,31.80
2019-04-28T20:11:11.791Z,31.43
2019-04-28T20:13:42.661Z,29.07
2019-04-28T20:16:13.533Z,33.73
2019-04-28T20:18:45.029Z,32.67
2019-04-28T20:21:16.656Z,33.87
2019-04-28T20:23:49.686Z,25.03
2019-04-28T20:26:20.920Z,31.77
2019-04-28T20:28:51.527Z,32.50
2019-04-28T20:31:22.170Z,31.67
2019-04-28T20:33:53.369Z,28.43
2019-04-28T20:36:34.239Z,32.40
2019-04-28T20:39:10.365Z,29.27
2019-04-28T20:41:42.723Z,25.40
2019-04-28T20:44:15.205Z,30.17
2019-04-28T20:46:45.669Z,28.77
2019-04-28T20:49:16.312Z,30.27
2019-04-28T20:51:46.879Z,22.30
2019-04-28T20:54:17.417Z,29.60
2019-04-28T20:56:48.047Z,27.23
2019-04-28T20:59:18.605Z,30.97
2019-04-28T21:01:49.430Z,27.00
2019-04-28T21:04:20.157Z,23.83
2019-04-28T21:06:50.637Z,31.27
2019-04-28T21:09:21.156Z,29.20
2019-04-28T21:11:51.757Z,31.17
2019-04-28T21:14:22.254Z,26.00
2019-04-28T21:16:53.999Z,32.00
2019-04-28T21:19:24.612Z,30.30
2019-04-28T21:21:56.259Z,30.27
2019-04-28T21:24:26.895Z,29.90
2019-04-28T21:26:57.507Z,30.53
2019-04-28T21:29:28.050Z,30.47
2019-04-28T21:31:58.539Z,30.70
2019-04-28T21:34:29.131Z,32.63
2019-04-28T21:36:59.726Z,30.37
2019-04-28T21:39:30.414Z,29.77
2019-04-28T21:42:02.279Z,34.03
2019-04-28T21:44:44.659Z,34.83
2019-04-28T21:47:21.612Z,33.27
2019-04-28T21:49:52.170Z,33.77
2019-04-28T21:52:22.665Z,35.50
2019-04-28T21:54:53.239Z,33.90
2019-04-28T21:57:23.820Z,33.13
2019-04-28T21:59:54.439Z,35.30
2019-04-28T22:02:25.028Z,32.70
2019-04-28T22:04:55.764Z,35.93
2019-04-28T22:07:26.539Z,32.73
2019-04-28T22:09:57.083Z,34.33
2019-04-28T22:12:27.661Z,32.60
2019-04-28T22:14:58.189Z,32.77
2019-04-28T22:17:28.577Z,33.63
2019-04-28T22:19:59.083Z,31.37
2019-04-28T22:22:29.575Z,33.33
2019-04-28T22:25:06.998Z,31.57
2019-04-28T22:27:41.821Z,30.17
2019-04-28T22:30:12.460Z,29.50
2019-04-28T22:32:42.992Z,29.43
2019-04-28T22:35:15.481Z,30.00
2019-04-28T22:37:46.023Z,28.17
2019-04-28T22:40:16.822Z,28.87
2019-04-28T22:42:47.377Z,28.40
2019-04-28T22:45:18.419Z,28.43
2019-04-28T22:47:48.932Z,20.27
2019-04-28T22:50:44.131Z,30.03
2019-04-28T22:53:16.471Z,27.80
2019-04-28T22:56:06.338Z,27.47
2019-04-28T22:58:44.812Z,26.70
2019-04-28T23:01:22.656Z,27.67
2019-04-28T23:03:59.289Z,26.13
2019-04-28T23:06:30.117Z,28.57
2019-04-28T23:09:02.052Z,27.77
2019-04-28T23:11:34.349Z,27.37
2019-04-28T23:14:05.070Z,25.30
2019-04-28T23:16:38.981Z,27.43
2019-04-28T23:19:11.837Z,27.70
2019-04-28T23:21:52.462Z,27.90
2019-04-28T23:24:23.262Z,27.67
2019-04-28T23:26:53.837Z,27.17
2019-04-28T23:29:24.411Z,25.70
2019-04-28T23:31:54.889Z,27.37
2019-04-28T23:34:27.728Z,25.50
2019-04-28T23:36:58.322Z,25.50
2019-04-28T23:39:28.874Z,27.43
2019-04-28T23:42:10.477Z,27.50
2019-04-28T23:44:41.942Z,25.33
2019-04-28T23:47:12.469Z,28.30
2019-04-28T23:49:43.063Z,26.13
2019-04-28T23:52:32.637Z,26.23
2019-04-28T23:55:05.161Z,27.87
2019-04-28T23:57:37.496Z,27.80
